sensor_id;sensor_type;location;lat;lon;timestamp;P1;durP1;ratioP1;P2;durP2;ratioP2
14272;SDS011;7220;49.450;11.052;2024-01-25T00:02:14;1.48;;;1.38;;
14272;SDS011;7220;49.450;11.052;2024-01-25T00:06:15;4.40;;;1.52;;
14272;SDS011;7220;49.450;11.052;2024-01-25T00:10:18;8.13;;;1.95;;
14272;SDS011;7220;49.450;11.052;2024-01-25T00:14:18;2.20;;;1.17;;
14272;SDS011;7220;49.450;11.052;2024-01-25T00:18:19;2.15;;;1.38;;
14272;SDS011;7220;49.450;11.052;2024-01-25T00:22:19;5.93;;;1.35;;
14272;SDS011;7220;49.450;11.052;2024-01-25T00:26:19;6.88;;;1.42;;
14272;SDS011;7220;49.450;11.052;2024-01-25T00:30:20;3.22;;;1.38;;
14272;SDS011;7220;49.450;11.052;2024-01-25T00:34:20;4.55;;;1.42;;
14272;SDS011;7220;49.450;11.052;2024-01-25T00:38:21;2.08;;;1.40;;
14272;SDS011;7220;49.450;11.052;2024-01-25T00:42:22;2.92;;;1.45;;
14272;SDS011;7220;49.450;11.052;2024-01-25T00:46:26;1.58;;;1.23;;
14272;SDS011;7220;49.450;11.052;2024-01-25T00:50:26;6.75;;;1.23;;
14272;SDS011;7220;49.450;11.052;2024-01-25T00:54:27;4.60;;;1.60;;
14272;SDS011;7220;49.450;11.052;2024-01-25T00:58:28;3.63;;;1.08;;
14272;SDS011;7220;49.450;11.052;2024-01-25T01:02:29;2.88;;;2.10;;
14272;SDS011;7220;49.450;11.052;2024-01-25T01:06:31;7.38;;;1.60;;
14272;SDS011;7220;49.450;11.052;2024-01-25T01:10:31;3.58;;;1.52;;
14272;SDS011;7220;49.450;11.052;2024-01-25T01:14:32;2.90;;;1.05;;
14272;SDS011;7220;49.450;11.052;2024-01-25T01:18:32;2.85;;;1.77;;
14272;SDS011;7220;49.450;11.052;2024-01-25T01:22:33;4.63;;;1.48;;
14272;SDS011;7220;49.450;11.052;2024-01-25T01:26:33;4.50;;;1.65;;
14272;SDS011;7220;49.450;11.052;2024-01-25T01:30:35;3.78;;;1.52;;
14272;SDS011;7220;49.450;11.052;2024-01-25T01:34:35;5.25;;;1.40;;
14272;SDS011;7220;49.450;11.052;2024-01-25T01:38:35;3.08;;;1.55;;
14272;SDS011;7220;49.450;11.052;2024-01-25T01:42:36;3.80;;;1.55;;
14272;SDS011;7220;49.450;11.052;2024-01-25T01:46:37;2.70;;;1.20;;
14272;SDS011;7220;49.450;11.052;2024-01-25T01:50:39;4.93;;;1.48;;
14272;SDS011;7220;49.450;11.052;2024-01-25T01:54:40;2.00;;;1.10;;
14272;SDS011;7220;49.450;11.052;2024-01-25T01:58:41;2.30;;;1.60;;
14272;SDS011;7220;49.450;11.052;2024-01-25T02:02:42;2.25;;;1.15;;
14272;SDS011;7220;49.450;11.052;2024-01-25T02:06:43;4.03;;;1.50;;
14272;SDS011;7220;49.450;11.052;2024-01-25T02:10:45;3.63;;;1.60;;
14272;SDS011;7220;49.450;11.052;2024-01-25T02:14:46;3.25;;;2.08;;
14272;SDS011;7220;49.450;11.052;2024-01-25T02:18:46;5.13;;;1.50;;
14272;SDS011;7220;49.450;11.052;2024-01-25T02:22:47;2.85;;;1.40;;
14272;SDS011;7220;49.450;11.052;2024-01-25T02:26:48;2.65;;;1.40;;
14272;SDS011;7220;49.450;11.052;2024-01-25T02:30:48;3.97;;;1.13;;
14272;SDS011;7220;49.450;11.052;2024-01-25T02:34:48;6.10;;;1.52;;
14272;SDS011;7220;49.450;11.052;2024-01-25T02:38:49;2.83;;;1.10;;
14272;SDS011;7220;49.450;11.052;2024-01-25T02:42:49;3.67;;;1.60;;
14272;SDS011;7220;49.450;11.052;2024-01-25T02:46:49;5.57;;;1.23;;
14272;SDS011;7220;49.450;11.052;2024-01-25T02:50:50;2.00;;;0.88;;
14272;SDS011;7220;49.450;11.052;2024-01-25T02:54:51;4.63;;;1.92;;
14272;SDS011;7220;49.450;11.052;2024-01-25T02:58:51;2.78;;;1.40;;
14272;SDS011;7220;49.450;11.052;2024-01-25T03:02:51;4.28;;;1.38;;
14272;SDS011;7220;49.450;11.052;2024-01-25T03:06:52;4.05;;;1.73;;
14272;SDS011;7220;49.450;11.052;2024-01-25T03:10:52;4.18;;;1.33;;
14272;SDS011;7220;49.450;11.052;2024-01-25T03:14:52;1.98;;;1.15;;
14272;SDS011;7220;49.450;11.052;2024-01-25T03:18:53;1.38;;;1.00;;
14272;SDS011;7220;49.450;11.052;2024-01-25T03:22:53;4.43;;;1.45;;
14272;SDS011;7220;49.450;11.052;2024-01-25T03:26:54;2.50;;;1.13;;
14272;SDS011;7220;49.450;11.052;2024-01-25T03:30:54;3.45;;;1.17;;
14272;SDS011;7220;49.450;11.052;2024-01-25T03:34:55;4.05;;;1.63;;
14272;SDS011;7220;49.450;11.052;2024-01-25T03:38:55;3.60;;;1.35;;
14272;SDS011;7220;49.450;11.052;2024-01-25T03:42:56;2.33;;;1.52;;
14272;SDS011;7220;49.450;11.052;2024-01-25T03:46:56;2.30;;;1.33;;
14272;SDS011;7220;49.450;11.052;2024-01-25T03:50:56;4.05;;;1.25;;
14272;SDS011;7220;49.450;11.052;2024-01-25T03:54:57;1.88;;;1.30;;
14272;SDS011;7220;49.450;11.052;2024-01-25T03:58:57;1.73;;;1.08;;
14272;SDS011;7220;49.450;11.052;2024-01-25T04:02:58;2.78;;;1.30;;
14272;SDS011;7220;49.450;11.052;2024-01-25T04:06:58;3.22;;;1.80;;
14272;SDS011;7220;49.450;11.052;2024-01-25T04:10:59;2.28;;;1.13;;
14272;SDS011;7220;49.450;11.052;2024-01-25T04:14:59;1.63;;;1.17;;
14272;SDS011;7220;49.450;11.052;2024-01-25T04:19:00;4.03;;;1.58;;
14272;SDS011;7220;49.450;11.052;2024-01-25T04:23:00;3.55;;;1.40;;
14272;SDS011;7220;49.450;11.052;2024-01-25T04:27:01;3.55;;;1.45;;
14272;SDS011;7220;49.450;11.052;2024-01-25T04:31:02;3.78;;;1.67;;
14272;SDS011;7220;49.450;11.052;2024-01-25T04:35:03;3.08;;;1.20;;
14272;SDS011;7220;49.450;11.052;2024-01-25T04:39:04;4.95;;;1.17;;
14272;SDS011;7220;49.450;11.052;2024-01-25T04:43:04;3.05;;;1.38;;
14272;SDS011;7220;49.450;11.052;2024-01-25T04:47:04;3.05;;;1.38;;
14272;SDS011;7220;49.450;11.052;2024-01-25T04:51:05;2.78;;;1.25;;
14272;SDS011;7220;49.450;11.052;2024-01-25T04:55:05;2.70;;;1.35;;
14272;SDS011;7220;49.450;11.052;2024-01-25T04:59:06;5.15;;;1.70;;
14272;SDS011;7220;49.450;11.052;2024-01-25T05:03:06;3.88;;;1.52;;
14272;SDS011;7220;49.450;11.052;2024-01-25T05:07:06;2.47;;;1.25;;
14272;SDS011;7220;49.450;11.052;2024-01-25T05:11:07;2.47;;;1.10;;
14272;SDS011;7220;49.450;11.052;2024-01-25T05:15:09;1.77;;;1.20;;
14272;SDS011;7220;49.450;11.052;2024-01-25T05:19:09;2.65;;;1.55;;
14272;SDS011;7220;49.450;11.052;2024-01-25T05:23:10;4.15;;;1.23;;
14272;SDS011;7220;49.450;11.052;2024-01-25T05:27:10;1.58;;;1.33;;
14272;SDS011;7220;49.450;11.052;2024-01-25T05:31:10;1.85;;;0.77;;
14272;SDS011;7220;49.450;11.052;2024-01-25T05:35:14;2.25;;;1.30;;
14272;SDS011;7220;49.450;11.052;2024-01-25T05:39:14;2.17;;;1.42;;
14272;SDS011;7220;49.450;11.052;2024-01-25T05:43:15;2.00;;;1.63;;
14272;SDS011;7220;49.450;11.052;2024-01-25T05:47:15;5.20;;;1.75;;
14272;SDS011;7220;49.450;11.052;2024-01-25T05:51:16;4.50;;;1.60;;
14272;SDS011;7220;49.450;11.052;2024-01-25T05:55:16;3.40;;;1.70;;
14272;SDS011;7220;49.450;11.052;2024-01-25T05:59:16;4.82;;;1.52;;
14272;SDS011;7220;49.450;11.052;2024-01-25T06:03:17;1.95;;;1.40;;
14272;SDS011;7220;49.450;11.052;2024-01-25T06:07:17;2.67;;;1.50;;
14272;SDS011;7220;49.450;11.052;2024-01-25T06:11:17;3.63;;;1.42;;
14272;SDS011;7220;49.450;11.052;2024-01-25T06:15:18;2.03;;;1.50;;
14272;SDS011;7220;49.450;11.052;2024-01-25T06:19:18;2.35;;;1.52;;
14272;SDS011;7220;49.450;11.052;2024-01-25T06:23:18;4.00;;;1.33;;
14272;SDS011;7220;49.450;11.052;2024-01-25T06:27:19;6.63;;;1.80;;
14272;SDS011;7220;49.450;11.052;2024-01-25T06:31:19;6.07;;;2.08;;
14272;SDS011;7220;49.450;11.052;2024-01-25T06:35:19;4.43;;;1.40;;
14272;SDS011;7220;49.450;11.052;2024-01-25T06:39:20;1.83;;;1.48;;
14272;SDS011;7220;49.450;11.052;2024-01-25T06:43:20;1.55;;;1.33;;
14272;SDS011;7220;49.450;11.052;2024-01-25T06:47:20;2.20;;;1.30;;
14272;SDS011;7220;49.450;11.052;2024-01-25T06:51:21;1.20;;;0.90;;
14272;SDS011;7220;49.450;11.052;2024-01-25T06:55:21;3.53;;;1.80;;
14272;SDS011;7220;49.450;11.052;2024-01-25T06:59:21;4.82;;;2.00;;
14272;SDS011;7220;49.450;11.052;2024-01-25T07:03:22;2.25;;;1.42;;
14272;SDS011;7220;49.450;11.052;2024-01-25T07:07:22;7.03;;;1.88;;
14272;SDS011;7220;49.450;11.052;2024-01-25T07:11:22;1.58;;;1.48;;
14272;SDS011;7220;49.450;11.052;2024-01-25T07:15:24;2.25;;;1.15;;
14272;SDS011;7220;49.450;11.052;2024-01-25T07:19:25;4.78;;;1.48;;
14272;SDS011;7220;49.450;11.052;2024-01-25T07:23:25;4.05;;;1.45;;
14272;SDS011;7220;49.450;11.052;2024-01-25T07:27:26;4.05;;;2.00;;
14272;SDS011;7220;49.450;11.052;2024-01-25T07:31:27;2.05;;;1.50;;
14272;SDS011;7220;49.450;11.052;2024-01-25T07:35:27;2.75;;;1.25;;
14272;SDS011;7220;49.450;11.052;2024-01-25T07:39:28;1.85;;;1.20;;
14272;SDS011;7220;49.450;11.052;2024-01-25T07:43:28;4.47;;;1.40;;
14272;SDS011;7220;49.450;11.052;2024-01-25T07:47:28;1.23;;;1.13;;
14272;SDS011;7220;49.450;11.052;2024-01-25T07:51:30;2.08;;;1.38;;
14272;SDS011;7220;49.450;11.052;2024-01-25T07:55:30;5.05;;;1.58;;
14272;SDS011;7220;49.450;11.052;2024-01-25T07:59:30;3.33;;;1.70;;
14272;SDS011;7220;49.450;11.052;2024-01-25T08:03:31;3.85;;;1.63;;
14272;SDS011;7220;49.450;11.052;2024-01-25T08:07:32;7.97;;;1.92;;
14272;SDS011;7220;49.450;11.052;2024-01-25T08:11:33;3.85;;;1.35;;
14272;SDS011;7220;49.450;11.052;2024-01-25T08:15:33;2.78;;;1.60;;
14272;SDS011;7220;49.450;11.052;2024-01-25T08:19:34;2.25;;;1.48;;
14272;SDS011;7220;49.450;11.052;2024-01-25T08:23:34;3.35;;;1.65;;
14272;SDS011;7220;49.450;11.052;2024-01-25T08:27:34;7.78;;;2.22;;
14272;SDS011;7220;49.450;11.052;2024-01-25T08:31:35;4.07;;;2.00;;
14272;SDS011;7220;49.450;11.052;2024-01-25T08:35:35;3.30;;;1.73;;
14272;SDS011;7220;49.450;11.052;2024-01-25T08:39:35;3.38;;;1.60;;
14272;SDS011;7220;49.450;11.052;2024-01-25T08:43:36;1.67;;;1.48;;
14272;SDS011;7220;49.450;11.052;2024-01-25T08:47:36;4.22;;;1.88;;
14272;SDS011;7220;49.450;11.052;2024-01-25T08:51:37;3.05;;;2.25;;
14272;SDS011;7220;49.450;11.052;2024-01-25T08:55:39;7.28;;;1.90;;
14272;SDS011;7220;49.450;11.052;2024-01-25T08:59:40;3.10;;;1.60;;
14272;SDS011;7220;49.450;11.052;2024-01-25T09:03:40;3.60;;;1.90;;
14272;SDS011;7220;49.450;11.052;2024-01-25T09:07:41;5.65;;;2.72;;
14272;SDS011;7220;49.450;11.052;2024-01-25T09:11:42;2.35;;;1.25;;
14272;SDS011;7220;49.450;11.052;2024-01-25T09:15:42;5.03;;;1.95;;
14272;SDS011;7220;49.450;11.052;2024-01-25T09:19:44;3.13;;;1.80;;
14272;SDS011;7220;49.450;11.052;2024-01-25T09:23:44;6.28;;;1.85;;
14272;SDS011;7220;49.450;11.052;2024-01-25T09:27:45;3.03;;;1.92;;
14272;SDS011;7220;49.450;11.052;2024-01-25T09:31:45;7.13;;;2.75;;
14272;SDS011;7220;49.450;11.052;2024-01-25T09:35:46;3.40;;;1.73;;
14272;SDS011;7220;49.450;11.052;2024-01-25T09:39:47;9.32;;;2.40;;
14272;SDS011;7220;49.450;11.052;2024-01-25T09:43:47;5.40;;;1.80;;
14272;SDS011;7220;49.450;11.052;2024-01-25T09:47:48;4.88;;;1.58;;
14272;SDS011;7220;49.450;11.052;2024-01-25T09:51:48;5.75;;;1.83;;
14272;SDS011;7220;49.450;11.052;2024-01-25T10:00:03;2.80;;;1.83;;
14272;SDS011;7220;49.450;11.052;2024-01-25T10:04:06;5.15;;;1.60;;
14272;SDS011;7220;49.450;11.052;2024-01-25T10:08:12;7.53;;;2.00;;
14272;SDS011;7220;49.450;11.052;2024-01-25T10:12:13;2.22;;;1.88;;
14272;SDS011;7220;49.450;11.052;2024-01-25T10:16:14;4.15;;;1.55;;
14272;SDS011;7220;49.450;11.052;2024-01-25T10:20:16;3.72;;;1.70;;
14272;SDS011;7220;49.450;11.052;2024-01-25T10:24:16;5.18;;;2.22;;
14272;SDS011;7220;49.450;11.052;2024-01-25T10:28:17;2.03;;;1.60;;
14272;SDS011;7220;49.450;11.052;2024-01-25T10:32:17;4.13;;;1.73;;
14272;SDS011;7220;49.450;11.052;2024-01-25T10:36:20;2.30;;;1.50;;
14272;SDS011;7220;49.450;11.052;2024-01-25T10:40:21;6.93;;;1.98;;
14272;SDS011;7220;49.450;11.052;2024-01-25T10:44:22;1.88;;;1.42;;
14272;SDS011;7220;49.450;11.052;2024-01-25T10:48:22;2.83;;;1.70;;
14272;SDS011;7220;49.450;11.052;2024-01-25T10:52:23;6.65;;;2.05;;
14272;SDS011;7220;49.450;11.052;2024-01-25T10:56:24;3.25;;;1.75;;
14272;SDS011;7220;49.450;11.052;2024-01-25T11:00:24;3.08;;;1.88;;
14272;SDS011;7220;49.450;11.052;2024-01-25T11:04:25;3.33;;;1.60;;
14272;SDS011;7220;49.450;11.052;2024-01-25T11:08:25;4.88;;;1.92;;
14272;SDS011;7220;49.450;11.052;2024-01-25T11:12:25;6.25;;;2.47;;
14272;SDS011;7220;49.450;11.052;2024-01-25T11:16:29;3.83;;;1.75;;
14272;SDS011;7220;49.450;11.052;2024-01-25T11:20:31;4.68;;;1.60;;
14272;SDS011;7220;49.450;11.052;2024-01-25T11:24:36;6.97;;;1.92;;
14272;SDS011;7220;49.450;11.052;2024-01-25T11:28:38;2.50;;;1.40;;
14272;SDS011;7220;49.450;11.052;2024-01-25T11:32:39;3.72;;;1.73;;
14272;SDS011;7220;49.450;11.052;2024-01-25T11:36:39;4.03;;;1.23;;
14272;SDS011;7220;49.450;11.052;2024-01-25T11:40:40;1.65;;;1.52;;
14272;SDS011;7220;49.450;11.052;2024-01-25T11:44:40;7.25;;;1.98;;
14272;SDS011;7220;49.450;11.052;2024-01-25T11:48:41;1.98;;;1.58;;
14272;SDS011;7220;49.450;11.052;2024-01-25T11:52:41;2.55;;;1.58;;
14272;SDS011;7220;49.450;11.052;2024-01-25T11:56:42;5.05;;;1.85;;
14272;SDS011;7220;49.450;11.052;2024-01-25T12:00:43;6.80;;;1.50;;
14272;SDS011;7220;49.450;11.052;2024-01-25T12:04:43;3.97;;;1.90;;
14272;SDS011;7220;49.450;11.052;2024-01-25T12:08:46;2.47;;;1.90;;
14272;SDS011;7220;49.450;11.052;2024-01-25T12:12:48;4.05;;;1.80;;
14272;SDS011;7220;49.450;11.052;2024-01-25T12:16:48;2.58;;;1.73;;
14272;SDS011;7220;49.450;11.052;2024-01-25T12:20:49;4.85;;;1.42;;
14272;SDS011;7220;49.450;11.052;2024-01-25T12:24:52;3.67;;;1.35;;
14272;SDS011;7220;49.450;11.052;2024-01-25T12:28:54;4.55;;;1.67;;
14272;SDS011;7220;49.450;11.052;2024-01-25T12:32:54;6.80;;;1.88;;
14272;SDS011;7220;49.450;11.052;2024-01-25T12:36:54;4.60;;;1.77;;
14272;SDS011;7220;49.450;11.052;2024-01-25T12:40:55;4.65;;;1.85;;
14272;SDS011;7220;49.450;11.052;2024-01-25T12:44:56;2.80;;;1.73;;
14272;SDS011;7220;49.450;11.052;2024-01-25T12:48:56;5.75;;;2.03;;
14272;SDS011;7220;49.450;11.052;2024-01-25T12:52:58;5.70;;;1.83;;
14272;SDS011;7220;49.450;11.052;2024-01-25T12:56:59;5.07;;;1.98;;
14272;SDS011;7220;49.450;11.052;2024-01-25T13:00:59;5.13;;;2.03;;
14272;SDS011;7220;49.450;11.052;2024-01-25T13:05:00;3.05;;;1.50;;
14272;SDS011;7220;49.450;11.052;2024-01-25T13:09:00;5.32;;;1.98;;
14272;SDS011;7220;49.450;11.052;2024-01-25T13:13:00;2.75;;;1.60;;
14272;SDS011;7220;49.450;11.052;2024-01-25T13:17:01;4.57;;;1.83;;
14272;SDS011;7220;49.450;11.052;2024-01-25T13:21:01;2.45;;;1.42;;
14272;SDS011;7220;49.450;11.052;2024-01-25T13:25:02;1.70;;;1.60;;
14272;SDS011;7220;49.450;11.052;2024-01-25T13:29:02;4.30;;;1.60;;
14272;SDS011;7220;49.450;11.052;2024-01-25T13:33:03;3.67;;;1.75;;
14272;SDS011;7220;49.450;11.052;2024-01-25T13:37:03;2.08;;;1.60;;
14272;SDS011;7220;49.450;11.052;2024-01-25T13:41:04;8.88;;;1.75;;
14272;SDS011;7220;49.450;11.052;2024-01-25T13:45:05;4.00;;;1.85;;
14272;SDS011;7220;49.450;11.052;2024-01-25T13:49:06;2.45;;;1.83;;
14272;SDS011;7220;49.450;11.052;2024-01-25T13:53:07;3.92;;;1.52;;
14272;SDS011;7220;49.450;11.052;2024-01-25T13:57:07;1.38;;;1.05;;
14272;SDS011;7220;49.450;11.052;2024-01-25T14:01:07;1.90;;;1.58;;
14272;SDS011;7220;49.450;11.052;2024-01-25T14:05:08;1.58;;;1.40;;
14272;SDS011;7220;49.450;11.052;2024-01-25T14:09:08;1.67;;;1.10;;
14272;SDS011;7220;49.450;11.052;2024-01-25T14:13:09;3.20;;;1.67;;
14272;SDS011;7220;49.450;11.052;2024-01-25T14:17:10;4.55;;;1.80;;
14272;SDS011;7220;49.450;11.052;2024-01-25T14:21:10;2.28;;;1.60;;
14272;SDS011;7220;49.450;11.052;2024-01-25T14:25:11;6.22;;;1.70;;
14272;SDS011;7220;49.450;11.052;2024-01-25T14:29:12;8.18;;;1.48;;
14272;SDS011;7220;49.450;11.052;2024-01-25T14:33:14;2.97;;;1.77;;
14272;SDS011;7220;49.450;11.052;2024-01-25T14:37:14;5.95;;;2.40;;
14272;SDS011;7220;49.450;11.052;2024-01-25T14:41:15;2.85;;;1.83;;
14272;SDS011;7220;49.450;11.052;2024-01-25T14:45:16;3.45;;;1.75;;
14272;SDS011;7220;49.450;11.052;2024-01-25T14:49:16;3.15;;;1.80;;
14272;SDS011;7220;49.450;11.052;2024-01-25T14:53:16;5.22;;;1.90;;
14272;SDS011;7220;49.450;11.052;2024-01-25T14:57:18;2.95;;;1.70;;
14272;SDS011;7220;49.450;11.052;2024-01-25T15:01:18;3.40;;;1.30;;
14272;SDS011;7220;49.450;11.052;2024-01-25T15:05:20;2.50;;;1.75;;
14272;SDS011;7220;49.450;11.052;2024-01-25T15:09:21;4.97;;;2.00;;
14272;SDS011;7220;49.450;11.052;2024-01-25T15:13:21;4.22;;;1.40;;
14272;SDS011;7220;49.450;11.052;2024-01-25T15:17:21;7.40;;;1.48;;
14272;SDS011;7220;49.450;11.052;2024-01-25T15:21:22;3.90;;;1.60;;
14272;SDS011;7220;49.450;11.052;2024-01-25T15:25:22;6.13;;;1.60;;
14272;SDS011;7220;49.450;11.052;2024-01-25T15:29:24;4.07;;;1.52;;
14272;SDS011;7220;49.450;11.052;2024-01-25T15:33:25;5.20;;;1.70;;
14272;SDS011;7220;49.450;11.052;2024-01-25T15:37:25;5.97;;;1.90;;
14272;SDS011;7220;49.450;11.052;2024-01-25T15:41:25;7.97;;;2.50;;
14272;SDS011;7220;49.450;11.052;2024-01-25T15:45:26;4.38;;;2.50;;
14272;SDS011;7220;49.450;11.052;2024-01-25T15:49:27;3.97;;;2.13;;
14272;SDS011;7220;49.450;11.052;2024-01-25T15:53:27;5.47;;;1.70;;
14272;SDS011;7220;49.450;11.052;2024-01-25T15:57:28;4.25;;;2.13;;
14272;SDS011;7220;49.450;11.052;2024-01-25T16:01:28;3.53;;;1.85;;
14272;SDS011;7220;49.450;11.052;2024-01-25T16:05:29;6.13;;;1.70;;
14272;SDS011;7220;49.450;11.052;2024-01-25T16:09:29;2.35;;;1.60;;
14272;SDS011;7220;49.450;11.052;2024-01-25T16:13:30;4.00;;;2.15;;
14272;SDS011;7220;49.450;11.052;2024-01-25T16:17:30;5.88;;;2.20;;
14272;SDS011;7220;49.450;11.052;2024-01-25T16:21:30;3.10;;;2.30;;
14272;SDS011;7220;49.450;11.052;2024-01-25T16:25:30;3.17;;;1.90;;
14272;SDS011;7220;49.450;11.052;2024-01-25T16:29:32;3.17;;;2.05;;
14272;SDS011;7220;49.450;11.052;2024-01-25T16:33:32;4.38;;;2.15;;
14272;SDS011;7220;49.450;11.052;2024-01-25T16:37:33;7.15;;;2.58;;
14272;SDS011;7220;49.450;11.052;2024-01-25T16:41:33;4.60;;;2.92;;
14272;SDS011;7220;49.450;11.052;2024-01-25T16:45:34;4.50;;;2.08;;
14272;SDS011;7220;49.450;11.052;2024-01-25T16:49:34;4.63;;;1.75;;
14272;SDS011;7220;49.450;11.052;2024-01-25T16:53:34;5.03;;;2.10;;
14272;SDS011;7220;49.450;11.052;2024-01-25T16:57:35;3.47;;;2.08;;
14272;SDS011;7220;49.450;11.052;2024-01-25T17:01:35;3.63;;;1.85;;
14272;SDS011;7220;49.450;11.052;2024-01-25T17:05:36;3.60;;;2.45;;
14272;SDS011;7220;49.450;11.052;2024-01-25T17:09:37;4.20;;;2.10;;
14272;SDS011;7220;49.450;11.052;2024-01-25T17:13:37;7.07;;;2.42;;
14272;SDS011;7220;49.450;11.052;2024-01-25T17:17:38;4.28;;;1.88;;
14272;SDS011;7220;49.450;11.052;2024-01-25T17:21:38;3.13;;;1.75;;
14272;SDS011;7220;49.450;11.052;2024-01-25T17:25:39;6.00;;;2.53;;
14272;SDS011;7220;49.450;11.052;2024-01-25T17:29:39;4.72;;;2.28;;
14272;SDS011;7220;49.450;11.052;2024-01-25T17:33:39;5.57;;;2.75;;
14272;SDS011;7220;49.450;11.052;2024-01-25T17:37:40;9.43;;;3.33;;
14272;SDS011;7220;49.450;11.052;2024-01-25T17:41:40;5.93;;;2.88;;
14272;SDS011;7220;49.450;11.052;2024-01-25T17:45:41;4.55;;;2.95;;
14272;SDS011;7220;49.450;11.052;2024-01-25T17:49:41;5.78;;;2.80;;
14272;SDS011;7220;49.450;11.052;2024-01-25T17:53:42;4.68;;;2.72;;
14272;SDS011;7220;49.450;11.052;2024-01-25T17:57:42;5.25;;;3.13;;
14272;SDS011;7220;49.450;11.052;2024-01-25T18:01:43;4.47;;;3.00;;
14272;SDS011;7220;49.450;11.052;2024-01-25T18:05:43;5.70;;;3.13;;
14272;SDS011;7220;49.450;11.052;2024-01-25T18:09:44;6.90;;;3.28;;
14272;SDS011;7220;49.450;11.052;2024-01-25T18:13:44;5.13;;;3.25;;
14272;SDS011;7220;49.450;11.052;2024-01-25T18:17:47;7.18;;;3.90;;
14272;SDS011;7220;49.450;11.052;2024-01-25T18:21:48;9.18;;;3.72;;
14272;SDS011;7220;49.450;11.052;2024-01-25T18:25:48;6.00;;;3.17;;
14272;SDS011;7220;49.450;11.052;2024-01-25T18:29:48;4.03;;;3.08;;
14272;SDS011;7220;49.450;11.052;2024-01-25T18:33:49;7.03;;;3.35;;
14272;SDS011;7220;49.450;11.052;2024-01-25T18:37:49;8.65;;;3.55;;
14272;SDS011;7220;49.450;11.052;2024-01-25T18:41:50;7.78;;;3.40;;
14272;SDS011;7220;49.450;11.052;2024-01-25T18:45:52;7.50;;;3.60;;
14272;SDS011;7220;49.450;11.052;2024-01-25T18:49:52;6.47;;;3.30;;
14272;SDS011;7220;49.450;11.052;2024-01-25T18:53:53;5.15;;;3.30;;
14272;SDS011;7220;49.450;11.052;2024-01-25T18:57:53;5.68;;;3.30;;
14272;SDS011;7220;49.450;11.052;2024-01-25T19:01:54;7.00;;;3.08;;
14272;SDS011;7220;49.450;11.052;2024-01-25T19:05:57;4.25;;;3.33;;
14272;SDS011;7220;49.450;11.052;2024-01-25T19:09:58;4.82;;;2.95;;
14272;SDS011;7220;49.450;11.052;2024-01-25T19:13:58;4.47;;;2.55;;
14272;SDS011;7220;49.450;11.052;2024-01-25T19:17:59;10.55;;;3.92;;
14272;SDS011;7220;49.450;11.052;2024-01-25T19:22:00;11.65;;;4.40;;
14272;SDS011;7220;49.450;11.052;2024-01-25T19:26:00;5.57;;;3.85;;
14272;SDS011;7220;49.450;11.052;2024-01-25T19:30:00;4.95;;;3.75;;
14272;SDS011;7220;49.450;11.052;2024-01-25T19:34:01;7.90;;;4.28;;
14272;SDS011;7220;49.450;11.052;2024-01-25T19:38:01;5.03;;;3.85;;
14272;SDS011;7220;49.450;11.052;2024-01-25T19:42:01;10.40;;;3.90;;
14272;SDS011;7220;49.450;11.052;2024-01-25T19:46:02;8.18;;;4.03;;
14272;SDS011;7220;49.450;11.052;2024-01-25T19:50:04;4.65;;;3.70;;
14272;SDS011;7220;49.450;11.052;2024-01-25T19:54:04;7.95;;;3.47;;
14272;SDS011;7220;49.450;11.052;2024-01-25T19:58:05;6.28;;;3.92;;
14272;SDS011;7220;49.450;11.052;2024-01-25T20:02:06;5.43;;;3.67;;
14272;SDS011;7220;49.450;11.052;2024-01-25T20:06:09;8.80;;;4.43;;
14272;SDS011;7220;49.450;11.052;2024-01-25T20:10:12;8.32;;;4.10;;
14272;SDS011;7220;49.450;11.052;2024-01-25T20:14:12;5.63;;;4.03;;
14272;SDS011;7220;49.450;11.052;2024-01-25T20:18:13;6.75;;;3.95;;
14272;SDS011;7220;49.450;11.052;2024-01-25T20:22:13;8.98;;;3.97;;
14272;SDS011;7220;49.450;11.052;2024-01-25T20:26:13;11.95;;;5.75;;
14272;SDS011;7220;49.450;11.052;2024-01-25T20:30:17;8.85;;;4.95;;
14272;SDS011;7220;49.450;11.052;2024-01-25T20:34:17;7.60;;;4.70;;
14272;SDS011;7220;49.450;11.052;2024-01-25T20:38:19;8.10;;;4.68;;
14272;SDS011;7220;49.450;11.052;2024-01-25T20:42:19;7.57;;;4.55;;
14272;SDS011;7220;49.450;11.052;2024-01-25T20:46:19;7.38;;;4.20;;
14272;SDS011;7220;49.450;11.052;2024-01-25T20:50:20;10.02;;;5.22;;
14272;SDS011;7220;49.450;11.052;2024-01-25T20:54:20;5.47;;;4.13;;
14272;SDS011;7220;49.450;11.052;2024-01-25T20:58:21;9.55;;;4.50;;
14272;SDS011;7220;49.450;11.052;2024-01-25T21:02:21;6.10;;;4.22;;
14272;SDS011;7220;49.450;11.052;2024-01-25T21:06:22;8.48;;;4.15;;
14272;SDS011;7220;49.450;11.052;2024-01-25T21:10:22;8.48;;;4.32;;
14272;SDS011;7220;49.450;11.052;2024-01-25T21:14:23;5.90;;;4.75;;
14272;SDS011;7220;49.450;11.052;2024-01-25T21:18:24;9.73;;;3.97;;
14272;SDS011;7220;49.450;11.052;2024-01-25T21:22:24;9.85;;;5.28;;
14272;SDS011;7220;49.450;11.052;2024-01-25T21:26:24;5.70;;;4.32;;
14272;SDS011;7220;49.450;11.052;2024-01-25T21:30:25;9.82;;;5.32;;
14272;SDS011;7220;49.450;11.052;2024-01-25T21:34:25;7.22;;;4.80;;
14272;SDS011;7220;49.450;11.052;2024-01-25T21:38:25;5.80;;;4.30;;
14272;SDS011;7220;49.450;11.052;2024-01-25T21:42:26;8.43;;;4.15;;
14272;SDS011;7220;49.450;11.052;2024-01-25T21:46:26;7.65;;;4.38;;
14272;SDS011;7220;49.450;11.052;2024-01-25T21:50:27;5.97;;;4.28;;
14272;SDS011;7220;49.450;11.052;2024-01-25T21:54:27;11.63;;;4.82;;
14272;SDS011;7220;49.450;11.052;2024-01-25T21:58:28;8.85;;;4.30;;
14272;SDS011;7220;49.450;11.052;2024-01-25T22:02:28;8.07;;;5.35;;
14272;SDS011;7220;49.450;11.052;2024-01-25T22:06:29;6.47;;;4.47;;
14272;SDS011;7220;49.450;11.052;2024-01-25T22:10:29;5.20;;;4.20;;
14272;SDS011;7220;49.450;11.052;2024-01-25T22:14:29;4.45;;;3.50;;
14272;SDS011;7220;49.450;11.052;2024-01-25T22:18:29;5.43;;;3.85;;
14272;SDS011;7220;49.450;11.052;2024-01-25T22:22:30;10.35;;;4.63;;
14272;SDS011;7220;49.450;11.052;2024-01-25T22:26:30;10.02;;;4.55;;
14272;SDS011;7220;49.450;11.052;2024-01-25T22:30:30;5.95;;;3.72;;
14272;SDS011;7220;49.450;11.052;2024-01-25T22:34:31;5.13;;;3.30;;
14272;SDS011;7220;49.450;11.052;2024-01-25T22:38:32;5.47;;;3.75;;
14272;SDS011;7220;49.450;11.052;2024-01-25T22:42:33;5.85;;;3.92;;
14272;SDS011;7220;49.450;11.052;2024-01-25T22:46:33;6.10;;;3.83;;
14272;SDS011;7220;49.450;11.052;2024-01-25T22:50:33;6.97;;;4.50;;
14272;SDS011;7220;49.450;11.052;2024-01-25T22:54:34;5.78;;;4.10;;
14272;SDS011;7220;49.450;11.052;2024-01-25T22:58:34;8.52;;;3.85;;
14272;SDS011;7220;49.450;11.052;2024-01-25T23:02:34;4.28;;;3.40;;
14272;SDS011;7220;49.450;11.052;2024-01-25T23:06:35;5.45;;;3.58;;
14272;SDS011;7220;49.450;11.052;2024-01-25T23:10:35;5.53;;;3.90;;
14272;SDS011;7220;49.450;11.052;2024-01-25T23:14:35;7.50;;;3.47;;
14272;SDS011;7220;49.450;11.052;2024-01-25T23:18:36;6.30;;;3.35;;
14272;SDS011;7220;49.450;11.052;2024-01-25T23:22:37;9.18;;;3.90;;
14272;SDS011;7220;49.450;11.052;2024-01-25T23:26:38;5.63;;;3.63;;
14272;SDS011;7220;49.450;11.052;2024-01-25T23:30:38;3.97;;;2.30;;
14272;SDS011;7220;49.450;11.052;2024-01-25T23:34:39;4.28;;;3.30;;
14272;SDS011;7220;49.450;11.052;2024-01-25T23:38:39;4.07;;;3.35;;
14272;SDS011;7220;49.450;11.052;2024-01-25T23:42:44;3.83;;;2.35;;
14272;SDS011;7220;49.450;11.052;2024-01-25T23:46:45;6.05;;;2.50;;
14272;SDS011;7220;49.450;11.052;2024-01-25T23:50:45;2.70;;;2.50;;
14272;SDS011;7220;49.450;11.052;2024-01-25T23:54:46;2.97;;;2.58;;
14272;SDS011;7220;49.450;11.052;2024-01-25T23:58:46;3.03;;;2.47;;
